sensor_id;sensor_type;location;lat;lon;timestamp;temperature;humidity
35970;DHT22;22448;51.298;6.430;2024-02-21T00:00:59;8.60;99.90
35970;DHT22;22448;51.298;6.430;2024-02-21T00:03:26;8.60;99.90
35970;DHT22;22448;51.298;6.430;2024-02-21T00:05:53;8.60;99.90
35970;DHT22;22448;51.298;6.430;2024-02-21T00:08:20;8.60;99.90
35970;DHT22;22448;51.298;6.430;2024-02-21T00:10:48;8.60;99.90
35970;DHT22;22448;51.298;6.430;2024-02-21T00:13:16;8.60;99.90
35970;DHT22;22448;51.298;6.430;2024-02-21T00:15:43;8.60;99.90
35970;DHT22;22448;51.298;6.430;2024-02-21T00:18:10;8.60;99.90
35970;DHT22;22448;51.298;6.430;2024-02-21T00:20:38;8.60;99.90
35970;DHT22;22448;51.298;6.430;2024-02-21T00:23:05;8.60;99.90
35970;DHT22;22448;51.298;6.430;2024-02-21T00:25:32;8.60;99.90
35970;DHT22;22448;51.298;6.430;2024-02-21T00:27:59;8.50;99.90
35970;DHT22;22448;51.298;6.430;2024-02-21T00:30:26;8.50;99.90
35970;DHT22;22448;51.298;6.430;2024-02-21T00:32:54;8.50;99.90
35970;DHT22;22448;51.298;6.430;2024-02-21T00:35:22;8.50;99.90
35970;DHT22;22448;51.298;6.430;2024-02-21T00:37:49;8.50;99.90
35970;DHT22;22448;51.298;6.430;2024-02-21T00:40:16;8.50;99.90
35970;DHT22;22448;51.298;6.430;2024-02-21T00:42:47;8.50;99.90
35970;DHT22;22448;51.298;6.430;2024-02-21T00:45:14;8.50;99.90
35970;DHT22;22448;51.298;6.430;2024-02-21T00:47:41;8.50;99.90
35970;DHT22;22448;51.298;6.430;2024-02-21T00:50:08;8.50;99.90
35970;DHT22;22448;51.298;6.430;2024-02-21T00:52:36;8.50;99.90
35970;DHT22;22448;51.298;6.430;2024-02-21T00:55:04;8.50;99.90
35970;DHT22;22448;51.298;6.430;2024-02-21T00:57:32;8.50;99.90
35970;DHT22;22448;51.298;6.430;2024-02-21T00:59:59;8.50;99.90
35970;DHT22;22448;51.298;6.430;2024-02-21T01:02:26;8.50;99.90
35970;DHT22;22448;51.298;6.430;2024-02-21T01:04:53;8.50;99.90
35970;DHT22;22448;51.298;6.430;2024-02-21T01:07:20;8.50;99.90
35970;DHT22;22448;51.298;6.430;2024-02-21T01:09:48;8.50;99.90
35970;DHT22;22448;51.298;6.430;2024-02-21T01:12:15;8.50;99.90
35970;DHT22;22448;51.298;6.430;2024-02-21T01:14:42;8.50;99.90
35970;DHT22;22448;51.298;6.430;2024-02-21T01:17:09;8.50;99.90
35970;DHT22;22448;51.298;6.430;2024-02-21T01:19:36;8.50;99.90
35970;DHT22;22448;51.298;6.430;2024-02-21T01:22:04;8.50;99.90
35970;DHT22;22448;51.298;6.430;2024-02-21T01:24:31;8.50;99.90
35970;DHT22;22448;51.298;6.430;2024-02-21T01:26:58;8.50;99.90
35970;DHT22;22448;51.298;6.430;2024-02-21T01:29:25;8.50;99.90
35970;DHT22;22448;51.298;6.430;2024-02-21T01:31:52;8.50;99.90
35970;DHT22;22448;51.298;6.430;2024-02-21T01:34:20;8.50;99.90
35970;DHT22;22448;51.298;6.430;2024-02-21T01:36:47;8.50;99.90
35970;DHT22;22448;51.298;6.430;2024-02-21T01:39:14;8.50;99.90
35970;DHT22;22448;51.298;6.430;2024-02-21T01:41:41;8.50;99.90
35970;DHT22;22448;51.298;6.430;2024-02-21T01:44:08;8.50;99.90
35970;DHT22;22448;51.298;6.430;2024-02-21T01:46:36;8.50;99.90
35970;DHT22;22448;51.298;6.430;2024-02-21T01:49:04;8.60;99.90
35970;DHT22;22448;51.298;6.430;2024-02-21T01:51:32;8.50;99.90
35970;DHT22;22448;51.298;6.430;2024-02-21T01:53:59;8.50;99.90
35970;DHT22;22448;51.298;6.430;2024-02-21T01:56:27;8.50;99.90
35970;DHT22;22448;51.298;6.430;2024-02-21T01:58:55;8.50;99.90
35970;DHT22;22448;51.298;6.430;2024-02-21T02:01:22;8.50;99.90
35970;DHT22;22448;51.298;6.430;2024-02-21T02:03:51;8.50;99.90
35970;DHT22;22448;51.298;6.430;2024-02-21T02:06:19;8.50;99.90
35970;DHT22;22448;51.298;6.430;2024-02-21T02:08:47;8.50;99.90
35970;DHT22;22448;51.298;6.430;2024-02-21T02:11:14;8.50;99.90
35970;DHT22;22448;51.298;6.430;2024-02-21T02:13:42;8.50;99.90
35970;DHT22;22448;51.298;6.430;2024-02-21T02:16:09;8.50;99.90
35970;DHT22;22448;51.298;6.430;2024-02-21T02:18:36;8.50;99.90
35970;DHT22;22448;51.298;6.430;2024-02-21T02:21:05;8.50;99.90
35970;DHT22;22448;51.298;6.430;2024-02-21T02:23:36;8.50;99.90
35970;DHT22;22448;51.298;6.430;2024-02-21T02:26:03;8.50;99.90
35970;DHT22;22448;51.298;6.430;2024-02-21T02:28:30;8.50;99.90
35970;DHT22;22448;51.298;6.430;2024-02-21T02:30:58;8.50;99.90
35970;DHT22;22448;51.298;6.430;2024-02-21T02:33:25;8.50;99.90
35970;DHT22;22448;51.298;6.430;2024-02-21T02:35:52;8.50;99.90
35970;DHT22;22448;51.298;6.430;2024-02-21T02:38:19;8.50;99.90
35970;DHT22;22448;51.298;6.430;2024-02-21T02:40:46;8.50;99.90
35970;DHT22;22448;51.298;6.430;2024-02-21T02:43:13;8.50;99.90
35970;DHT22;22448;51.298;6.430;2024-02-21T02:45:40;8.50;99.90
35970;DHT22;22448;51.298;6.430;2024-02-21T02:48:08;8.50;99.90
35970;DHT22;22448;51.298;6.430;2024-02-21T02:50:35;8.50;99.90
35970;DHT22;22448;51.298;6.430;2024-02-21T02:53:02;8.50;99.90
35970;DHT22;22448;51.298;6.430;2024-02-21T02:55:29;8.50;99.90
35970;DHT22;22448;51.298;6.430;2024-02-21T02:57:56;8.40;99.90
35970;DHT22;22448;51.298;6.430;2024-02-21T03:00:24;8.50;99.90
35970;DHT22;22448;51.298;6.430;2024-02-21T03:02:51;8.40;99.90
35970;DHT22;22448;51.298;6.430;2024-02-21T03:05:20;8.40;99.90
35970;DHT22;22448;51.298;6.430;2024-02-21T03:07:48;8.40;99.90
35970;DHT22;22448;51.298;6.430;2024-02-21T03:10:18;8.40;99.90
35970;DHT22;22448;51.298;6.430;2024-02-21T03:12:46;8.40;99.90
35970;DHT22;22448;51.298;6.430;2024-02-21T03:15:14;8.40;99.90
35970;DHT22;22448;51.298;6.430;2024-02-21T03:17:41;8.40;99.90
35970;DHT22;22448;51.298;6.430;2024-02-21T03:20:10;8.40;99.90
35970;DHT22;22448;51.298;6.430;2024-02-21T03:22:40;8.40;99.90
35970;DHT22;22448;51.298;6.430;2024-02-21T03:25:11;8.40;99.90
35970;DHT22;22448;51.298;6.430;2024-02-21T03:27:39;8.40;99.90
35970;DHT22;22448;51.298;6.430;2024-02-21T03:30:07;8.40;99.90
35970;DHT22;22448;51.298;6.430;2024-02-21T03:32:34;8.40;99.90
35970;DHT22;22448;51.298;6.430;2024-02-21T03:35:01;8.30;99.90
35970;DHT22;22448;51.298;6.430;2024-02-21T03:37:29;8.40;99.90
35970;DHT22;22448;51.298;6.430;2024-02-21T03:39:56;8.40;99.90
35970;DHT22;22448;51.298;6.430;2024-02-21T03:42:23;8.40;99.90
35970;DHT22;22448;51.298;6.430;2024-02-21T03:44:50;8.40;99.90
35970;DHT22;22448;51.298;6.430;2024-02-21T03:47:17;8.40;99.90
35970;DHT22;22448;51.298;6.430;2024-02-21T03:49:44;8.40;99.90
35970;DHT22;22448;51.298;6.430;2024-02-21T03:52:11;8.40;99.90
35970;DHT22;22448;51.298;6.430;2024-02-21T03:54:39;8.40;99.90
35970;DHT22;22448;51.298;6.430;2024-02-21T03:57:06;8.40;99.90
35970;DHT22;22448;51.298;6.430;2024-02-21T03:59:33;8.40;99.90
35970;DHT22;22448;51.298;6.430;2024-02-21T04:02:00;8.40;99.90
35970;DHT22;22448;51.298;6.430;2024-02-21T04:04:28;8.40;99.90
35970;DHT22;22448;51.298;6.430;2024-02-21T04:06:55;8.40;99.90
35970;DHT22;22448;51.298;6.430;2024-02-21T04:09:22;8.40;99.90
35970;DHT22;22448;51.298;6.430;2024-02-21T04:11:49;8.30;99.90
35970;DHT22;22448;51.298;6.430;2024-02-21T04:14:16;8.30;99.90
35970;DHT22;22448;51.298;6.430;2024-02-21T04:16:43;8.20;99.90
35970;DHT22;22448;51.298;6.430;2024-02-21T04:19:10;8.20;99.90
35970;DHT22;22448;51.298;6.430;2024-02-21T04:21:37;8.20;99.90
35970;DHT22;22448;51.298;6.430;2024-02-21T04:24:05;8.10;99.90
35970;DHT22;22448;51.298;6.430;2024-02-21T04:26:33;8.20;99.90
35970;DHT22;22448;51.298;6.430;2024-02-21T04:29:00;8.20;99.90
35970;DHT22;22448;51.298;6.430;2024-02-21T04:31:28;8.10;99.90
35970;DHT22;22448;51.298;6.430;2024-02-21T04:33:56;8.20;99.90
35970;DHT22;22448;51.298;6.430;2024-02-21T04:36:23;8.20;99.90
35970;DHT22;22448;51.298;6.430;2024-02-21T04:38:50;8.20;99.90
35970;DHT22;22448;51.298;6.430;2024-02-21T04:41:17;8.20;99.90
35970;DHT22;22448;51.298;6.430;2024-02-21T04:43:46;8.20;99.90
35970;DHT22;22448;51.298;6.430;2024-02-21T04:46:14;8.20;99.90
35970;DHT22;22448;51.298;6.430;2024-02-21T04:48:42;8.20;99.90
35970;DHT22;22448;51.298;6.430;2024-02-21T04:51:11;8.30;99.90
35970;DHT22;22448;51.298;6.430;2024-02-21T04:53:40;8.20;99.90
35970;DHT22;22448;51.298;6.430;2024-02-21T04:56:07;8.20;99.90
35970;DHT22;22448;51.298;6.430;2024-02-21T04:58:38;8.20;99.90
35970;DHT22;22448;51.298;6.430;2024-02-21T05:01:05;8.30;99.90
35970;DHT22;22448;51.298;6.430;2024-02-21T05:03:33;8.20;99.90
35970;DHT22;22448;51.298;6.430;2024-02-21T05:06:00;8.20;99.90
35970;DHT22;22448;51.298;6.430;2024-02-21T05:08:27;8.20;99.90
35970;DHT22;22448;51.298;6.430;2024-02-21T05:10:55;8.20;99.90
35970;DHT22;22448;51.298;6.430;2024-02-21T05:13:22;8.20;99.90
35970;DHT22;22448;51.298;6.430;2024-02-21T05:15:49;8.20;99.90
35970;DHT22;22448;51.298;6.430;2024-02-21T05:18:16;8.20;99.90
35970;DHT22;22448;51.298;6.430;2024-02-21T05:20:43;8.20;99.90
35970;DHT22;22448;51.298;6.430;2024-02-21T05:23:10;8.10;99.90
35970;DHT22;22448;51.298;6.430;2024-02-21T05:25:38;8.10;99.90
35970;DHT22;22448;51.298;6.430;2024-02-21T05:28:05;8.10;99.90
35970;DHT22;22448;51.298;6.430;2024-02-21T05:30:33;8.10;99.90
35970;DHT22;22448;51.298;6.430;2024-02-21T05:33:04;8.10;99.90
35970;DHT22;22448;51.298;6.430;2024-02-21T05:35:32;8.10;99.90
35970;DHT22;22448;51.298;6.430;2024-02-21T05:37:59;8.10;99.90
35970;DHT22;22448;51.298;6.430;2024-02-21T05:40:27;8.00;99.90
35970;DHT22;22448;51.298;6.430;2024-02-21T05:42:54;8.00;99.90
35970;DHT22;22448;51.298;6.430;2024-02-21T05:45:21;8.00;99.90
35970;DHT22;22448;51.298;6.430;2024-02-21T05:47:48;8.10;99.90
35970;DHT22;22448;51.298;6.430;2024-02-21T05:50:15;8.00;99.90
35970;DHT22;22448;51.298;6.430;2024-02-21T05:52:43;8.10;99.90
35970;DHT22;22448;51.298;6.430;2024-02-21T05:55:10;8.00;99.90
35970;DHT22;22448;51.298;6.430;2024-02-21T05:57:37;8.10;99.90
35970;DHT22;22448;51.298;6.430;2024-02-21T06:00:05;8.00;99.90
35970;DHT22;22448;51.298;6.430;2024-02-21T06:02:38;8.10;99.90
35970;DHT22;22448;51.298;6.430;2024-02-21T06:05:05;8.10;99.90
35970;DHT22;22448;51.298;6.430;2024-02-21T06:07:34;8.00;99.90
35970;DHT22;22448;51.298;6.430;2024-02-21T06:10:02;8.00;99.90
35970;DHT22;22448;51.298;6.430;2024-02-21T06:12:30;8.00;99.90
35970;DHT22;22448;51.298;6.430;2024-02-21T06:14:57;8.00;99.90
35970;DHT22;22448;51.298;6.430;2024-02-21T06:17:23;8.00;99.90
35970;DHT22;22448;51.298;6.430;2024-02-21T06:19:51;8.00;99.90
35970;DHT22;22448;51.298;6.430;2024-02-21T06:22:18;8.00;99.90
35970;DHT22;22448;51.298;6.430;2024-02-21T06:24:45;8.00;99.90
35970;DHT22;22448;51.298;6.430;2024-02-21T06:27:12;8.00;99.90
35970;DHT22;22448;51.298;6.430;2024-02-21T06:29:42;8.00;99.90
35970;DHT22;22448;51.298;6.430;2024-02-21T06:32:09;8.00;99.90
35970;DHT22;22448;51.298;6.430;2024-02-21T06:34:36;8.00;99.90
35970;DHT22;22448;51.298;6.430;2024-02-21T06:37:03;8.00;99.90
35970;DHT22;22448;51.298;6.430;2024-02-21T06:39:30;8.00;99.90
35970;DHT22;22448;51.298;6.430;2024-02-21T06:41:58;8.00;99.90
35970;DHT22;22448;51.298;6.430;2024-02-21T06:44:29;8.00;99.90
35970;DHT22;22448;51.298;6.430;2024-02-21T06:46:56;8.00;99.90
35970;DHT22;22448;51.298;6.430;2024-02-21T06:49:26;8.00;99.90
35970;DHT22;22448;51.298;6.430;2024-02-21T06:51:53;8.00;99.90
35970;DHT22;22448;51.298;6.430;2024-02-21T06:54:20;8.00;99.90
35970;DHT22;22448;51.298;6.430;2024-02-21T06:56:47;8.00;99.90
35970;DHT22;22448;51.298;6.430;2024-02-21T06:59:14;8.00;99.90
35970;DHT22;22448;51.298;6.430;2024-02-21T07:01:47;8.10;99.90
35970;DHT22;22448;51.298;6.430;2024-02-21T07:04:15;8.10;99.90
35970;DHT22;22448;51.298;6.430;2024-02-21T07:06:42;8.10;99.90
35970;DHT22;22448;51.298;6.430;2024-02-21T07:09:09;8.10;99.90
35970;DHT22;22448;51.298;6.430;2024-02-21T07:11:37;8.20;99.90
35970;DHT22;22448;51.298;6.430;2024-02-21T07:14:04;8.20;99.90
35970;DHT22;22448;51.298;6.430;2024-02-21T07:16:31;8.10;99.90
35970;DHT22;22448;51.298;6.430;2024-02-21T07:19:00;8.20;99.90
35970;DHT22;22448;51.298;6.430;2024-02-21T07:21:27;8.20;99.90
35970;DHT22;22448;51.298;6.430;2024-02-21T07:23:54;8.20;99.90
35970;DHT22;22448;51.298;6.430;2024-02-21T07:26:22;8.20;99.90
35970;DHT22;22448;51.298;6.430;2024-02-21T07:28:49;8.20;99.90
35970;DHT22;22448;51.298;6.430;2024-02-21T07:31:16;8.30;99.90
35970;DHT22;22448;51.298;6.430;2024-02-21T07:33:44;8.20;99.90
35970;DHT22;22448;51.298;6.430;2024-02-21T07:36:11;8.30;99.90
35970;DHT22;22448;51.298;6.430;2024-02-21T07:38:39;8.30;99.90
35970;DHT22;22448;51.298;6.430;2024-02-21T07:41:06;8.30;99.90
35970;DHT22;22448;51.298;6.430;2024-02-21T07:43:34;8.30;99.90
35970;DHT22;22448;51.298;6.430;2024-02-21T07:46:01;8.30;99.90
35970;DHT22;22448;51.298;6.430;2024-02-21T07:48:28;8.30;99.90
35970;DHT22;22448;51.298;6.430;2024-02-21T07:50:59;8.30;99.90
35970;DHT22;22448;51.298;6.430;2024-02-21T07:53:26;8.40;99.90
35970;DHT22;22448;51.298;6.430;2024-02-21T07:55:53;8.40;99.90
35970;DHT22;22448;51.298;6.430;2024-02-21T07:58:20;8.40;99.90
35970;DHT22;22448;51.298;6.430;2024-02-21T08:00:47;8.40;99.90
35970;DHT22;22448;51.298;6.430;2024-02-21T08:03:15;8.40;99.90
35970;DHT22;22448;51.298;6.430;2024-02-21T08:05:44;8.40;99.90
35970;DHT22;22448;51.298;6.430;2024-02-21T08:08:12;8.40;99.90
35970;DHT22;22448;51.298;6.430;2024-02-21T08:10:45;8.40;99.90
35970;DHT22;22448;51.298;6.430;2024-02-21T08:13:12;8.40;99.90
35970;DHT22;22448;51.298;6.430;2024-02-21T08:15:40;8.30;99.90
35970;DHT22;22448;51.298;6.430;2024-02-21T08:18:09;8.30;99.90
35970;DHT22;22448;51.298;6.430;2024-02-21T08:20:36;8.30;99.90
35970;DHT22;22448;51.298;6.430;2024-02-21T08:23:03;8.40;99.90
35970;DHT22;22448;51.298;6.430;2024-02-21T08:25:30;8.30;99.90
35970;DHT22;22448;51.298;6.430;2024-02-21T08:27:59;8.30;99.90
35970;DHT22;22448;51.298;6.430;2024-02-21T08:30:26;8.30;99.90
35970;DHT22;22448;51.298;6.430;2024-02-21T08:32:54;8.30;99.90
35970;DHT22;22448;51.298;6.430;2024-02-21T08:35:21;8.30;99.90
35970;DHT22;22448;51.298;6.430;2024-02-21T08:37:51;8.30;99.90
35970;DHT22;22448;51.298;6.430;2024-02-21T08:40:18;8.30;99.90
35970;DHT22;22448;51.298;6.430;2024-02-21T08:42:48;8.30;99.90
35970;DHT22;22448;51.298;6.430;2024-02-21T08:45:16;8.30;99.90
35970;DHT22;22448;51.298;6.430;2024-02-21T08:47:43;8.40;99.90
35970;DHT22;22448;51.298;6.430;2024-02-21T08:50:11;8.40;99.90
35970;DHT22;22448;51.298;6.430;2024-02-21T08:52:53;8.50;99.90
35970;DHT22;22448;51.298;6.430;2024-02-21T08:55:21;8.50;99.90
35970;DHT22;22448;51.298;6.430;2024-02-21T08:57:49;8.60;99.90
35970;DHT22;22448;51.298;6.430;2024-02-21T09:00:16;8.60;99.90
35970;DHT22;22448;51.298;6.430;2024-02-21T09:02:43;8.60;99.90
35970;DHT22;22448;51.298;6.430;2024-02-21T09:05:11;8.60;99.90
35970;DHT22;22448;51.298;6.430;2024-02-21T09:07:38;8.60;99.90
35970;DHT22;22448;51.298;6.430;2024-02-21T09:10:06;8.60;99.90
35970;DHT22;22448;51.298;6.430;2024-02-21T09:12:33;8.60;99.90
35970;DHT22;22448;51.298;6.430;2024-02-21T09:15:00;8.70;99.90
35970;DHT22;22448;51.298;6.430;2024-02-21T09:17:28;8.60;99.90
35970;DHT22;22448;51.298;6.430;2024-02-21T09:19:56;8.60;99.90
35970;DHT22;22448;51.298;6.430;2024-02-21T09:22:27;8.60;99.90
35970;DHT22;22448;51.298;6.430;2024-02-21T09:24:54;8.60;99.90
35970;DHT22;22448;51.298;6.430;2024-02-21T09:27:22;8.70;99.90
35970;DHT22;22448;51.298;6.430;2024-02-21T09:29:49;8.70;99.90
35970;DHT22;22448;51.298;6.430;2024-02-21T09:32:18;8.80;99.90
35970;DHT22;22448;51.298;6.430;2024-02-21T09:34:46;8.70;99.90
35970;DHT22;22448;51.298;6.430;2024-02-21T09:37:13;8.80;99.90
35970;DHT22;22448;51.298;6.430;2024-02-21T09:39:40;8.70;99.90
35970;DHT22;22448;51.298;6.430;2024-02-21T09:42:11;8.80;99.90
35970;DHT22;22448;51.298;6.430;2024-02-21T09:44:39;8.70;99.90
35970;DHT22;22448;51.298;6.430;2024-02-21T09:47:10;8.80;99.90
35970;DHT22;22448;51.298;6.430;2024-02-21T09:49:40;8.80;99.90
35970;DHT22;22448;51.298;6.430;2024-02-21T09:52:10;8.80;99.90
35970;DHT22;22448;51.298;6.430;2024-02-21T09:54:41;8.80;99.90
35970;DHT22;22448;51.298;6.430;2024-02-21T09:57:11;8.90;99.90
35970;DHT22;22448;51.298;6.430;2024-02-21T09:59:40;8.90;99.90
35970;DHT22;22448;51.298;6.430;2024-02-21T10:02:09;9.00;99.90
35970;DHT22;22448;51.298;6.430;2024-02-21T10:04:36;9.00;99.90
35970;DHT22;22448;51.298;6.430;2024-02-21T10:07:04;9.00;99.90
35970;DHT22;22448;51.298;6.430;2024-02-21T10:09:31;9.00;99.90
35970;DHT22;22448;51.298;6.430;2024-02-21T10:12:10;9.00;99.90
35970;DHT22;22448;51.298;6.430;2024-02-21T10:14:38;9.00;99.90
35970;DHT22;22448;51.298;6.430;2024-02-21T10:17:06;9.10;99.90
35970;DHT22;22448;51.298;6.430;2024-02-21T10:19:38;9.10;99.90
35970;DHT22;22448;51.298;6.430;2024-02-21T10:22:08;9.20;99.90
35970;DHT22;22448;51.298;6.430;2024-02-21T10:24:37;9.30;99.90
35970;DHT22;22448;51.298;6.430;2024-02-21T10:27:06;9.40;99.90
35970;DHT22;22448;51.298;6.430;2024-02-21T10:29:38;9.50;99.90
35970;DHT22;22448;51.298;6.430;2024-02-21T10:32:10;9.70;99.90
35970;DHT22;22448;51.298;6.430;2024-02-21T10:34:40;9.70;99.90
35970;DHT22;22448;51.298;6.430;2024-02-21T10:37:11;9.70;99.90
35970;DHT22;22448;51.298;6.430;2024-02-21T10:39:39;9.80;99.90
35970;DHT22;22448;51.298;6.430;2024-02-21T10:42:08;9.80;99.90
35970;DHT22;22448;51.298;6.430;2024-02-21T10:44:38;9.80;99.90
35970;DHT22;22448;51.298;6.430;2024-02-21T10:47:11;9.90;99.90
35970;DHT22;22448;51.298;6.430;2024-02-21T10:49:41;9.90;99.90
35970;DHT22;22448;51.298;6.430;2024-02-21T10:52:32;10.00;99.90
35970;DHT22;22448;51.298;6.430;2024-02-21T10:55:12;10.10;99.90
35970;DHT22;22448;51.298;6.430;2024-02-21T10:57:43;10.10;99.90
35970;DHT22;22448;51.298;6.430;2024-02-21T11:00:11;10.10;99.90
35970;DHT22;22448;51.298;6.430;2024-02-21T11:02:39;10.10;99.90
35970;DHT22;22448;51.298;6.430;2024-02-21T11:05:07;10.10;99.90
35970;DHT22;22448;51.298;6.430;2024-02-21T11:07:37;10.20;99.90
35970;DHT22;22448;51.298;6.430;2024-02-21T11:10:04;10.30;99.90
35970;DHT22;22448;51.298;6.430;2024-02-21T11:12:34;10.30;99.90
35970;DHT22;22448;51.298;6.430;2024-02-21T11:15:05;10.40;99.90
35970;DHT22;22448;51.298;6.430;2024-02-21T11:17:33;10.50;99.90
35970;DHT22;22448;51.298;6.430;2024-02-21T11:20:13;10.60;99.90
35970;DHT22;22448;51.298;6.430;2024-02-21T11:22:42;10.70;99.90
35970;DHT22;22448;51.298;6.430;2024-02-21T11:25:10;10.50;99.90
35970;DHT22;22448;51.298;6.430;2024-02-21T11:27:45;10.60;99.90
35970;DHT22;22448;51.298;6.430;2024-02-21T11:30:12;10.60;99.90
35970;DHT22;22448;51.298;6.430;2024-02-21T11:32:41;10.60;99.90
35970;DHT22;22448;51.298;6.430;2024-02-21T11:35:08;10.60;99.90
35970;DHT22;22448;51.298;6.430;2024-02-21T11:37:46;10.70;99.90
35970;DHT22;22448;51.298;6.430;2024-02-21T11:40:13;10.70;99.90
35970;DHT22;22448;51.298;6.430;2024-02-21T11:42:40;10.80;99.90
35970;DHT22;22448;51.298;6.430;2024-02-21T11:45:08;10.80;99.90
35970;DHT22;22448;51.298;6.430;2024-02-21T11:47:38;10.70;99.90
35970;DHT22;22448;51.298;6.430;2024-02-21T11:50:10;10.80;99.90
35970;DHT22;22448;51.298;6.430;2024-02-21T11:52:37;10.80;99.90
35970;DHT22;22448;51.298;6.430;2024-02-21T11:55:05;10.80;99.90
35970;DHT22;22448;51.298;6.430;2024-02-21T11:57:37;10.80;99.90
35970;DHT22;22448;51.298;6.430;2024-02-21T12:00:14;10.80;99.90
35970;DHT22;22448;51.298;6.430;2024-02-21T12:02:43;10.90;99.90
35970;DHT22;22448;51.298;6.430;2024-02-21T12:05:10;11.00;99.90
35970;DHT22;22448;51.298;6.430;2024-02-21T12:07:38;11.00;99.90
35970;DHT22;22448;51.298;6.430;2024-02-21T12:10:13;11.00;99.90
35970;DHT22;22448;51.298;6.430;2024-02-21T12:12:40;11.10;99.90
35970;DHT22;22448;51.298;6.430;2024-02-21T12:15:07;11.10;99.90
35970;DHT22;22448;51.298;6.430;2024-02-21T12:17:36;11.20;99.90
35970;DHT22;22448;51.298;6.430;2024-02-21T12:20:04;11.40;99.90
35970;DHT22;22448;51.298;6.430;2024-02-21T12:22:39;11.60;99.90
35970;DHT22;22448;51.298;6.430;2024-02-21T12:25:19;11.80;99.90
35970;DHT22;22448;51.298;6.430;2024-02-21T12:27:49;11.90;99.90
35970;DHT22;22448;51.298;6.430;2024-02-21T12:30:16;11.90;99.90
35970;DHT22;22448;51.298;6.430;2024-02-21T12:32:44;11.90;99.90
35970;DHT22;22448;51.298;6.430;2024-02-21T12:35:11;11.80;99.90
35970;DHT22;22448;51.298;6.430;2024-02-21T12:37:38;11.80;99.90
35970;DHT22;22448;51.298;6.430;2024-02-21T12:40:09;11.80;99.90
35970;DHT22;22448;51.298;6.430;2024-02-21T12:42:37;11.70;99.90
35970;DHT22;22448;51.298;6.430;2024-02-21T12:45:05;11.80;99.90
35970;DHT22;22448;51.298;6.430;2024-02-21T12:47:32;11.90;99.90
35970;DHT22;22448;51.298;6.430;2024-02-21T12:49:59;12.00;99.90
35970;DHT22;22448;51.298;6.430;2024-02-21T12:52:26;12.00;99.90
35970;DHT22;22448;51.298;6.430;2024-02-21T12:54:54;12.00;99.90
35970;DHT22;22448;51.298;6.430;2024-02-21T12:57:23;12.00;99.90
35970;DHT22;22448;51.298;6.430;2024-02-21T12:59:53;12.00;99.90
35970;DHT22;22448;51.298;6.430;2024-02-21T13:02:21;12.10;99.90
35970;DHT22;22448;51.298;6.430;2024-02-21T13:04:48;12.10;99.90
35970;DHT22;22448;51.298;6.430;2024-02-21T13:07:16;12.00;99.90
35970;DHT22;22448;51.298;6.430;2024-02-21T13:09:43;12.10;99.90
35970;DHT22;22448;51.298;6.430;2024-02-21T13:12:10;12.10;99.90
35970;DHT22;22448;51.298;6.430;2024-02-21T13:14:37;12.20;99.90
35970;DHT22;22448;51.298;6.430;2024-02-21T13:17:06;12.20;99.90
35970;DHT22;22448;51.298;6.430;2024-02-21T13:19:33;12.10;99.90
35970;DHT22;22448;51.298;6.430;2024-02-21T13:22:01;12.10;99.90
35970;DHT22;22448;51.298;6.430;2024-02-21T13:24:30;12.10;99.90
35970;DHT22;22448;51.298;6.430;2024-02-21T13:26:57;12.10;99.90
35970;DHT22;22448;51.298;6.430;2024-02-21T13:29:24;12.10;99.90
35970;DHT22;22448;51.298;6.430;2024-02-21T13:31:51;12.10;99.90
35970;DHT22;22448;51.298;6.430;2024-02-21T13:34:18;12.00;99.90
35970;DHT22;22448;51.298;6.430;2024-02-21T13:36:46;11.90;99.90
35970;DHT22;22448;51.298;6.430;2024-02-21T13:39:13;11.90;99.90
35970;DHT22;22448;51.298;6.430;2024-02-21T13:41:43;11.80;99.90
35970;DHT22;22448;51.298;6.430;2024-02-21T13:44:11;11.80;99.90
35970;DHT22;22448;51.298;6.430;2024-02-21T13:46:39;11.70;99.90
35970;DHT22;22448;51.298;6.430;2024-02-21T13:49:07;11.70;99.90
35970;DHT22;22448;51.298;6.430;2024-02-21T13:51:35;11.70;99.90
35970;DHT22;22448;51.298;6.430;2024-02-21T13:54:05;11.70;99.90
35970;DHT22;22448;51.298;6.430;2024-02-21T13:56:36;11.70;99.90
35970;DHT22;22448;51.298;6.430;2024-02-21T13:59:03;11.70;99.90
35970;DHT22;22448;51.298;6.430;2024-02-21T14:01:31;11.70;99.90
35970;DHT22;22448;51.298;6.430;2024-02-21T14:03:59;11.70;99.90
35970;DHT22;22448;51.298;6.430;2024-02-21T14:06:26;11.70;99.90
35970;DHT22;22448;51.298;6.430;2024-02-21T14:08:54;11.80;99.90
35970;DHT22;22448;51.298;6.430;2024-02-21T14:11:21;11.90;99.90
35970;DHT22;22448;51.298;6.430;2024-02-21T14:13:48;11.90;99.90
35970;DHT22;22448;51.298;6.430;2024-02-21T14:16:15;12.00;99.90
35970;DHT22;22448;51.298;6.430;2024-02-21T14:18:42;12.00;99.90
35970;DHT22;22448;51.298;6.430;2024-02-21T14:21:11;12.00;99.90
35970;DHT22;22448;51.298;6.430;2024-02-21T14:23:38;12.00;99.90
35970;DHT22;22448;51.298;6.430;2024-02-21T14:26:06;12.00;99.90
35970;DHT22;22448;51.298;6.430;2024-02-21T14:28:36;11.90;99.90
35970;DHT22;22448;51.298;6.430;2024-02-21T14:31:03;11.90;99.90
35970;DHT22;22448;51.298;6.430;2024-02-21T14:33:33;11.90;99.90
35970;DHT22;22448;51.298;6.430;2024-02-21T14:36:00;11.90;99.90
35970;DHT22;22448;51.298;6.430;2024-02-21T14:38:27;11.80;99.90
35970;DHT22;22448;51.298;6.430;2024-02-21T14:40:55;11.80;99.90
35970;DHT22;22448;51.298;6.430;2024-02-21T14:43:22;11.70;99.90
35970;DHT22;22448;51.298;6.430;2024-02-21T14:45:50;11.70;99.90
35970;DHT22;22448;51.298;6.430;2024-02-21T14:48:17;11.70;99.90
35970;DHT22;22448;51.298;6.430;2024-02-21T14:50:44;11.60;99.90
35970;DHT22;22448;51.298;6.430;2024-02-21T14:53:11;11.50;99.90
35970;DHT22;22448;51.298;6.430;2024-02-21T14:55:39;11.50;99.90
35970;DHT22;22448;51.298;6.430;2024-02-21T14:58:09;11.50;99.90
35970;DHT22;22448;51.298;6.430;2024-02-21T15:00:36;11.40;99.90
35970;DHT22;22448;51.298;6.430;2024-02-21T15:03:03;11.40;99.90
35970;DHT22;22448;51.298;6.430;2024-02-21T15:05:31;11.30;99.90
35970;DHT22;22448;51.298;6.430;2024-02-21T15:07:58;11.20;99.90
35970;DHT22;22448;51.298;6.430;2024-02-21T15:10:25;11.20;99.90
35970;DHT22;22448;51.298;6.430;2024-02-21T15:12:53;11.20;99.90
35970;DHT22;22448;51.298;6.430;2024-02-21T15:15:21;11.10;99.90
35970;DHT22;22448;51.298;6.430;2024-02-21T15:17:48;11.10;99.90
35970;DHT22;22448;51.298;6.430;2024-02-21T15:20:17;11.10;99.90
35970;DHT22;22448;51.298;6.430;2024-02-21T15:22:44;11.10;99.90
35970;DHT22;22448;51.298;6.430;2024-02-21T15:25:11;11.00;99.90
35970;DHT22;22448;51.298;6.430;2024-02-21T15:27:43;11.00;99.90
35970;DHT22;22448;51.298;6.430;2024-02-21T15:30:11;10.90;99.90
35970;DHT22;22448;51.298;6.430;2024-02-21T15:32:39;10.90;99.90
35970;DHT22;22448;51.298;6.430;2024-02-21T15:35:07;10.90;99.90
35970;DHT22;22448;51.298;6.430;2024-02-21T15:37:34;10.90;99.90
35970;DHT22;22448;51.298;6.430;2024-02-21T15:40:02;10.90;99.90
35970;DHT22;22448;51.298;6.430;2024-02-21T15:42:32;10.80;99.90
35970;DHT22;22448;51.298;6.430;2024-02-21T15:45:00;10.80;99.90
35970;DHT22;22448;51.298;6.430;2024-02-21T15:47:28;10.80;99.90